sensor_id;sensor_type;location;lat;lon;timestamp;P1;durP1;ratioP1;P2;durP2;ratioP2
18188;SDS011;9219;50.396;8.546;2023-07-29T00:05:45;1.23;;;1.20;;
18188;SDS011;9219;50.396;8.546;2023-07-29T00:08:14;2.53;;;1.23;;
18188;SDS011;9219;50.396;8.546;2023-07-29T00:10:41;2.10;;;1.90;;
18188;SDS011;9219;50.396;8.546;2023-07-29T00:13:08;2.03;;;1.87;;
18188;SDS011;9219;50.396;8.546;2023-07-29T00:15:36;1.90;;;1.63;;
18188;SDS011;9219;50.396;8.546;2023-07-29T00:18:04;2.40;;;1.93;;
18188;SDS011;9219;50.396;8.546;2023-07-29T00:20:31;4.10;;;2.50;;
18188;SDS011;9219;50.396;8.546;2023-07-29T00:25:37;2.73;;;2.53;;
18188;SDS011;9219;50.396;8.546;2023-07-29T00:28:05;3.60;;;2.93;;
18188;SDS011;9219;50.396;8.546;2023-07-29T00:30:32;3.77;;;3.23;;
18188;SDS011;9219;50.396;8.546;2023-07-29T00:32:59;3.60;;;3.30;;
18188;SDS011;9219;50.396;8.546;2023-07-29T00:35:27;6.40;;;3.50;;
18188;SDS011;9219;50.396;8.546;2023-07-29T00:37:54;3.53;;;3.23;;
18188;SDS011;9219;50.396;8.546;2023-07-29T00:40:22;4.23;;;3.83;;
18188;SDS011;9219;50.396;8.546;2023-07-29T00:42:50;6.93;;;3.67;;
18188;SDS011;9219;50.396;8.546;2023-07-29T00:50:23;5.20;;;3.20;;
18188;SDS011;9219;50.396;8.546;2023-07-29T00:52:50;3.77;;;3.47;;
18188;SDS011;9219;50.396;8.546;2023-07-29T00:55:18;4.00;;;3.60;;
18188;SDS011;9219;50.396;8.546;2023-07-29T00:57:45;8.27;;;3.47;;
18188;SDS011;9219;50.396;8.546;2023-07-29T01:00:14;6.90;;;3.43;;
18188;SDS011;9219;50.396;8.546;2023-07-29T01:02:42;4.00;;;3.57;;
18188;SDS011;9219;50.396;8.546;2023-07-29T01:05:10;4.43;;;3.47;;
18188;SDS011;9219;50.396;8.546;2023-07-29T01:10:24;3.37;;;3.07;;
18188;SDS011;9219;50.396;8.546;2023-07-29T01:13:00;4.77;;;3.23;;
18188;SDS011;9219;50.396;8.546;2023-07-29T01:15:33;4.17;;;3.43;;
18188;SDS011;9219;50.396;8.546;2023-07-29T01:18:10;3.57;;;3.27;;
18188;SDS011;9219;50.396;8.546;2023-07-29T01:20:46;3.93;;;2.87;;
18188;SDS011;9219;50.396;8.546;2023-07-29T01:23:22;3.37;;;3.07;;
18188;SDS011;9219;50.396;8.546;2023-07-29T01:25:50;11.53;;;3.37;;
18188;SDS011;9219;50.396;8.546;2023-07-29T01:34:41;4.40;;;2.50;;
18188;SDS011;9219;50.396;8.546;2023-07-29T01:37:15;5.23;;;3.40;;
18188;SDS011;9219;50.396;8.546;2023-07-29T01:39:46;3.13;;;2.93;;
18188;SDS011;9219;50.396;8.546;2023-07-29T01:42:17;4.20;;;3.80;;
18188;SDS011;9219;50.396;8.546;2023-07-29T01:44:45;4.07;;;3.67;;
18188;SDS011;9219;50.396;8.546;2023-07-29T01:47:12;5.03;;;3.80;;
18188;SDS011;9219;50.396;8.546;2023-07-29T01:49:41;4.57;;;4.10;;
18188;SDS011;9219;50.396;8.546;2023-07-29T01:58:31;7.10;;;4.00;;
18188;SDS011;9219;50.396;8.546;2023-07-29T02:00:59;7.00;;;3.93;;
18188;SDS011;9219;50.396;8.546;2023-07-29T02:03:27;5.93;;;3.77;;
18188;SDS011;9219;50.396;8.546;2023-07-29T02:05:54;3.90;;;3.50;;
18188;SDS011;9219;50.396;8.546;2023-07-29T02:08:21;3.20;;;2.90;;
18188;SDS011;9219;50.396;8.546;2023-07-29T02:10:49;3.80;;;3.40;;
18188;SDS011;9219;50.396;8.546;2023-07-29T02:13:16;3.07;;;2.83;;
18188;SDS011;9219;50.396;8.546;2023-07-29T02:19:29;3.57;;;2.70;;
18188;SDS011;9219;50.396;8.546;2023-07-29T02:21:57;3.57;;;2.77;;
18188;SDS011;9219;50.396;8.546;2023-07-29T02:24:25;2.87;;;2.67;;
18188;SDS011;9219;50.396;8.546;2023-07-29T02:26:52;10.17;;;3.43;;
18188;SDS011;9219;50.396;8.546;2023-07-29T02:29:20;4.03;;;2.83;;
18188;SDS011;9219;50.396;8.546;2023-07-29T02:31:48;7.33;;;2.73;;
18188;SDS011;9219;50.396;8.546;2023-07-29T02:34:15;3.47;;;3.17;;
18188;SDS011;9219;50.396;8.546;2023-07-29T02:36:44;3.80;;;3.50;;
18188;SDS011;9219;50.396;8.546;2023-07-29T02:44:26;3.20;;;2.90;;
18188;SDS011;9219;50.396;8.546;2023-07-29T02:46:53;6.93;;;3.03;;
18188;SDS011;9219;50.396;8.546;2023-07-29T02:49:21;4.07;;;3.60;;
18188;SDS011;9219;50.396;8.546;2023-07-29T02:51:51;3.73;;;3.17;;
18188;SDS011;9219;50.396;8.546;2023-07-29T02:54:19;4.10;;;3.70;;
18188;SDS011;9219;50.396;8.546;2023-07-29T02:56:47;4.33;;;3.93;;
18188;SDS011;9219;50.396;8.546;2023-07-29T02:59:14;4.67;;;4.27;;
18188;SDS011;9219;50.396;8.546;2023-07-29T03:01:42;8.97;;;4.53;;
18188;SDS011;9219;50.396;8.546;2023-07-29T03:09:29;4.20;;;3.80;;
18188;SDS011;9219;50.396;8.546;2023-07-29T03:11:56;4.23;;;3.67;;
18188;SDS011;9219;50.396;8.546;2023-07-29T03:14:24;4.83;;;3.80;;
18188;SDS011;9219;50.396;8.546;2023-07-29T03:16:52;6.53;;;4.70;;
18188;SDS011;9219;50.396;8.546;2023-07-29T03:19:19;5.17;;;4.67;;
18188;SDS011;9219;50.396;8.546;2023-07-29T03:21:47;5.27;;;4.77;;
18188;SDS011;9219;50.396;8.546;2023-07-29T03:24:14;5.77;;;5.17;;
18188;SDS011;9219;50.396;8.546;2023-07-29T03:26:42;10.87;;;5.87;;
18188;SDS011;9219;50.396;8.546;2023-07-29T03:34:17;6.20;;;5.50;;
18188;SDS011;9219;50.396;8.546;2023-07-29T03:36:44;5.63;;;5.03;;
18188;SDS011;9219;50.396;8.546;2023-07-29T03:39:13;5.40;;;4.90;;
18188;SDS011;9219;50.396;8.546;2023-07-29T03:41:40;5.43;;;4.93;;
18188;SDS011;9219;50.396;8.546;2023-07-29T03:44:08;5.20;;;4.67;;
18188;SDS011;9219;50.396;8.546;2023-07-29T03:46:35;4.40;;;4.00;;
18188;SDS011;9219;50.396;8.546;2023-07-29T03:49:03;5.17;;;4.13;;
18188;SDS011;9219;50.396;8.546;2023-07-29T03:51:31;5.03;;;4.37;;
18188;SDS011;9219;50.396;8.546;2023-07-29T03:59:39;8.97;;;5.27;;
18188;SDS011;9219;50.396;8.546;2023-07-29T04:02:07;9.80;;;5.63;;
18188;SDS011;9219;50.396;8.546;2023-07-29T04:05:09;6.13;;;5.17;;
18188;SDS011;9219;50.396;8.546;2023-07-29T04:07:37;6.40;;;5.27;;
18188;SDS011;9219;50.396;8.546;2023-07-29T04:10:05;6.00;;;5.37;;
18188;SDS011;9219;50.396;8.546;2023-07-29T04:12:34;7.00;;;5.53;;
18188;SDS011;9219;50.396;8.546;2023-07-29T04:15:02;5.87;;;4.90;;
18188;SDS011;9219;50.396;8.546;2023-07-29T04:21:37;5.03;;;4.53;;
18188;SDS011;9219;50.396;8.546;2023-07-29T04:24:04;4.37;;;3.97;;
18188;SDS011;9219;50.396;8.546;2023-07-29T04:26:32;8.27;;;4.80;;
18188;SDS011;9219;50.396;8.546;2023-07-29T04:29:02;5.60;;;4.80;;
18188;SDS011;9219;50.396;8.546;2023-07-29T04:31:30;4.80;;;4.27;;
18188;SDS011;9219;50.396;8.546;2023-07-29T04:33:57;3.37;;;3.07;;
18188;SDS011;9219;50.396;8.546;2023-07-29T04:36:25;3.80;;;3.50;;
18188;SDS011;9219;50.396;8.546;2023-07-29T04:45:34;3.20;;;2.90;;
18188;SDS011;9219;50.396;8.546;2023-07-29T04:48:02;4.87;;;2.70;;
18188;SDS011;9219;50.396;8.546;2023-07-29T04:50:30;3.47;;;3.00;;
18188;SDS011;9219;50.396;8.546;2023-07-29T04:52:58;3.27;;;2.97;;
18188;SDS011;9219;50.396;8.546;2023-07-29T04:55:25;3.07;;;2.77;;
18188;SDS011;9219;50.396;8.546;2023-07-29T04:57:53;3.77;;;2.60;;
18188;SDS011;9219;50.396;8.546;2023-07-29T05:00:20;2.60;;;2.40;;
18188;SDS011;9219;50.396;8.546;2023-07-29T05:02:49;2.60;;;2.40;;
18188;SDS011;9219;50.396;8.546;2023-07-29T05:10:23;3.37;;;3.07;;
18188;SDS011;9219;50.396;8.546;2023-07-29T05:12:51;4.53;;;2.93;;
18188;SDS011;9219;50.396;8.546;2023-07-29T05:15:18;4.33;;;3.57;;
18188;SDS011;9219;50.396;8.546;2023-07-29T05:17:46;5.23;;;3.57;;
18188;SDS011;9219;50.396;8.546;2023-07-29T05:20:13;3.30;;;3.00;;
18188;SDS011;9219;50.396;8.546;2023-07-29T05:22:41;3.57;;;2.97;;
18188;SDS011;9219;50.396;8.546;2023-07-29T05:25:08;3.10;;;2.80;;
18188;SDS011;9219;50.396;8.546;2023-07-29T05:27:37;5.43;;;3.67;;
18188;SDS011;9219;50.396;8.546;2023-07-29T05:35:23;3.33;;;2.37;;
18188;SDS011;9219;50.396;8.546;2023-07-29T05:37:50;5.20;;;2.40;;
18188;SDS011;9219;50.396;8.546;2023-07-29T05:40:18;2.20;;;2.03;;
18188;SDS011;9219;50.396;8.546;2023-07-29T05:42:46;2.90;;;2.30;;
18188;SDS011;9219;50.396;8.546;2023-07-29T05:45:14;2.47;;;2.23;;
18188;SDS011;9219;50.396;8.546;2023-07-29T05:47:41;2.83;;;2.27;;
18188;SDS011;9219;50.396;8.546;2023-07-29T05:50:09;3.53;;;1.93;;
18188;SDS011;9219;50.396;8.546;2023-07-29T05:55:18;4.33;;;2.47;;
18188;SDS011;9219;50.396;8.546;2023-07-29T05:57:46;3.03;;;2.13;;
18188;SDS011;9219;50.396;8.546;2023-07-29T06:00:13;2.67;;;2.37;;
18188;SDS011;9219;50.396;8.546;2023-07-29T06:02:41;2.77;;;2.20;;
18188;SDS011;9219;50.396;8.546;2023-07-29T06:05:08;5.77;;;2.50;;
18188;SDS011;9219;50.396;8.546;2023-07-29T06:07:35;4.13;;;2.20;;
18188;SDS011;9219;50.396;8.546;2023-07-29T06:10:04;3.43;;;2.23;;
18188;SDS011;9219;50.396;8.546;2023-07-29T06:16:01;8.07;;;2.87;;
18188;SDS011;9219;50.396;8.546;2023-07-29T06:18:29;2.93;;;2.43;;
18188;SDS011;9219;50.396;8.546;2023-07-29T06:20:56;3.50;;;2.33;;
18188;SDS011;9219;50.396;8.546;2023-07-29T06:23:24;2.60;;;2.33;;
18188;SDS011;9219;50.396;8.546;2023-07-29T06:25:51;2.63;;;2.43;;
18188;SDS011;9219;50.396;8.546;2023-07-29T06:28:18;4.87;;;2.27;;
18188;SDS011;9219;50.396;8.546;2023-07-29T06:30:46;4.60;;;2.20;;
18188;SDS011;9219;50.396;8.546;2023-07-29T06:33:17;2.90;;;2.50;;
18188;SDS011;9219;50.396;8.546;2023-07-29T06:41:04;6.13;;;3.27;;
18188;SDS011;9219;50.396;8.546;2023-07-29T06:43:32;2.90;;;2.63;;
18188;SDS011;9219;50.396;8.546;2023-07-29T06:45:59;3.30;;;2.67;;
18188;SDS011;9219;50.396;8.546;2023-07-29T06:48:27;4.47;;;2.20;;
18188;SDS011;9219;50.396;8.546;2023-07-29T06:50:54;3.23;;;1.97;;
18188;SDS011;9219;50.396;8.546;2023-07-29T06:53:26;3.17;;;1.83;;
18188;SDS011;9219;50.396;8.546;2023-07-29T06:55:53;2.77;;;2.57;;
18188;SDS011;9219;50.396;8.546;2023-07-29T06:58:23;4.87;;;2.67;;
18188;SDS011;9219;50.396;8.546;2023-07-29T07:04:45;3.27;;;2.00;;
18188;SDS011;9219;50.396;8.546;2023-07-29T07:07:13;2.77;;;2.37;;
18188;SDS011;9219;50.396;8.546;2023-07-29T07:09:40;2.93;;;1.93;;
18188;SDS011;9219;50.396;8.546;2023-07-29T07:12:07;5.27;;;2.13;;
18188;SDS011;9219;50.396;8.546;2023-07-29T07:14:39;2.53;;;1.90;;
18188;SDS011;9219;50.396;8.546;2023-07-29T07:17:07;3.20;;;1.60;;
18188;SDS011;9219;50.396;8.546;2023-07-29T07:19:38;3.07;;;2.23;;
18188;SDS011;9219;50.396;8.546;2023-07-29T07:26:12;2.00;;;1.80;;
18188;SDS011;9219;50.396;8.546;2023-07-29T07:28:39;2.10;;;1.83;;
18188;SDS011;9219;50.396;8.546;2023-07-29T07:31:07;2.83;;;1.87;;
18188;SDS011;9219;50.396;8.546;2023-07-29T07:33:34;4.67;;;1.93;;
18188;SDS011;9219;50.396;8.546;2023-07-29T07:36:01;1.53;;;1.37;;
18188;SDS011;9219;50.396;8.546;2023-07-29T07:38:29;3.57;;;2.30;;
18188;SDS011;9219;50.396;8.546;2023-07-29T07:40:56;2.13;;;1.83;;
18188;SDS011;9219;50.396;8.546;2023-07-29T07:43:25;1.83;;;1.67;;
18188;SDS011;9219;50.396;8.546;2023-07-29T07:50:58;2.20;;;1.90;;
18188;SDS011;9219;50.396;8.546;2023-07-29T07:53:26;1.87;;;1.70;;
18188;SDS011;9219;50.396;8.546;2023-07-29T07:55:53;4.10;;;1.80;;
18188;SDS011;9219;50.396;8.546;2023-07-29T07:58:20;2.33;;;1.87;;
18188;SDS011;9219;50.396;8.546;2023-07-29T08:00:48;2.03;;;1.87;;
18188;SDS011;9219;50.396;8.546;2023-07-29T08:03:15;3.60;;;2.27;;
18188;SDS011;9219;50.396;8.546;2023-07-29T08:05:42;2.37;;;2.13;;
18188;SDS011;9219;50.396;8.546;2023-07-29T08:08:11;2.43;;;1.93;;
18188;SDS011;9219;50.396;8.546;2023-07-29T08:15:57;2.70;;;1.93;;
18188;SDS011;9219;50.396;8.546;2023-07-29T08:18:24;2.30;;;2.10;;
18188;SDS011;9219;50.396;8.546;2023-07-29T08:20:52;2.63;;;2.43;;
18188;SDS011;9219;50.396;8.546;2023-07-29T08:23:20;2.30;;;2.10;;
18188;SDS011;9219;50.396;8.546;2023-07-29T08:25:50;1.90;;;1.80;;
18188;SDS011;9219;50.396;8.546;2023-07-29T08:28:19;2.23;;;1.90;;
18188;SDS011;9219;50.396;8.546;2023-07-29T08:30:48;3.03;;;1.90;;
18188;SDS011;9219;50.396;8.546;2023-07-29T08:37:13;1.77;;;1.63;;
18188;SDS011;9219;50.396;8.546;2023-07-29T08:39:41;1.80;;;1.70;;
18188;SDS011;9219;50.396;8.546;2023-07-29T08:42:08;2.07;;;1.90;;
18188;SDS011;9219;50.396;8.546;2023-07-29T08:44:40;1.77;;;1.20;;
18188;SDS011;9219;50.396;8.546;2023-07-29T08:47:09;2.30;;;1.97;;
18188;SDS011;9219;50.396;8.546;2023-07-29T08:49:36;1.40;;;1.30;;
18188;SDS011;9219;50.396;8.546;2023-07-29T08:52:35;4.07;;;1.77;;
18188;SDS011;9219;50.396;8.546;2023-07-29T09:00:09;1.40;;;1.30;;
18188;SDS011;9219;50.396;8.546;2023-07-29T09:02:37;2.23;;;1.10;;
18188;SDS011;9219;50.396;8.546;2023-07-29T09:05:06;1.70;;;1.30;;
18188;SDS011;9219;50.396;8.546;2023-07-29T09:07:34;4.57;;;1.77;;
18188;SDS011;9219;50.396;8.546;2023-07-29T09:10:04;4.77;;;2.47;;
18188;SDS011;9219;50.396;8.546;2023-07-29T09:12:35;1.83;;;1.20;;
18188;SDS011;9219;50.396;8.546;2023-07-29T09:15:02;1.47;;;1.37;;
18188;SDS011;9219;50.396;8.546;2023-07-29T09:20:11;1.30;;;1.13;;
18188;SDS011;9219;50.396;8.546;2023-07-29T09:22:39;1.40;;;1.30;;
18188;SDS011;9219;50.396;8.546;2023-07-29T09:25:07;1.77;;;1.30;;
18188;SDS011;9219;50.396;8.546;2023-07-29T09:27:34;2.43;;;1.20;;
18188;SDS011;9219;50.396;8.546;2023-07-29T09:30:06;1.63;;;0.87;;
18188;SDS011;9219;50.396;8.546;2023-07-29T09:32:41;1.20;;;1.10;;
18188;SDS011;9219;50.396;8.546;2023-07-29T09:35:10;7.10;;;1.10;;
18188;SDS011;9219;50.396;8.546;2023-07-29T09:37:39;3.20;;;1.20;;
18188;SDS011;9219;50.396;8.546;2023-07-29T09:45:14;1.37;;;1.27;;
18188;SDS011;9219;50.396;8.546;2023-07-29T09:47:47;1.20;;;1.10;;
18188;SDS011;9219;50.396;8.546;2023-07-29T09:50:15;1.43;;;1.13;;
18188;SDS011;9219;50.396;8.546;2023-07-29T09:52:43;1.30;;;1.20;;
18188;SDS011;9219;50.396;8.546;2023-07-29T09:55:12;1.07;;;0.93;;
18188;SDS011;9219;50.396;8.546;2023-07-29T09:57:40;2.60;;;1.20;;
18188;SDS011;9219;50.396;8.546;2023-07-29T10:00:10;2.73;;;1.07;;
18188;SDS011;9219;50.396;8.546;2023-07-29T10:02:42;0.97;;;0.90;;
18188;SDS011;9219;50.396;8.546;2023-07-29T10:21:03;1.97;;;1.10;;
18188;SDS011;9219;50.396;8.546;2023-07-29T10:23:34;1.40;;;1.20;;
18188;SDS011;9219;50.396;8.546;2023-07-29T10:26:06;1.93;;;1.27;;
18188;SDS011;9219;50.396;8.546;2023-07-29T10:28:39;1.10;;;1.00;;
18188;SDS011;9219;50.396;8.546;2023-07-29T10:31:12;1.60;;;1.20;;
18188;SDS011;9219;50.396;8.546;2023-07-29T10:33:41;1.53;;;1.40;;
18188;SDS011;9219;50.396;8.546;2023-07-29T10:36:11;1.50;;;1.30;;
18188;SDS011;9219;50.396;8.546;2023-07-29T10:43:46;1.80;;;0.93;;
18188;SDS011;9219;50.396;8.546;2023-07-29T10:46:17;1.63;;;1.20;;
18188;SDS011;9219;50.396;8.546;2023-07-29T10:48:53;1.67;;;1.20;;
18188;SDS011;9219;50.396;8.546;2023-07-29T10:51:22;0.97;;;0.87;;
18188;SDS011;9219;50.396;8.546;2023-07-29T10:53:52;2.70;;;1.13;;
18188;SDS011;9219;50.396;8.546;2023-07-29T10:56:25;1.10;;;1.00;;
18188;SDS011;9219;50.396;8.546;2023-07-29T10:58:56;1.37;;;1.20;;
18188;SDS011;9219;50.396;8.546;2023-07-29T11:07:42;9.23;;;1.30;;
18188;SDS011;9219;50.396;8.546;2023-07-29T11:10:27;1.27;;;0.90;;
18188;SDS011;9219;50.396;8.546;2023-07-29T11:16:04;3.50;;;1.40;;
18188;SDS011;9219;50.396;8.546;2023-07-29T11:18:46;1.90;;;1.27;;
18188;SDS011;9219;50.396;8.546;2023-07-29T11:21:26;1.97;;;1.43;;
18188;SDS011;9219;50.396;8.546;2023-07-29T11:23:55;1.43;;;1.33;;
18188;SDS011;9219;50.396;8.546;2023-07-29T11:26:36;3.43;;;1.00;;
18188;SDS011;9219;50.396;8.546;2023-07-29T11:29:26;3.30;;;1.60;;
18188;SDS011;9219;50.396;8.546;2023-07-29T11:35:39;1.27;;;1.07;;
18188;SDS011;9219;50.396;8.546;2023-07-29T11:38:07;3.67;;;1.50;;
18188;SDS011;9219;50.396;8.546;2023-07-29T11:40:34;1.67;;;1.30;;
18188;SDS011;9219;50.396;8.546;2023-07-29T11:43:02;1.67;;;1.23;;
18188;SDS011;9219;50.396;8.546;2023-07-29T11:45:31;3.43;;;1.20;;
18188;SDS011;9219;50.396;8.546;2023-07-29T11:48:17;1.90;;;1.10;;
18188;SDS011;9219;50.396;8.546;2023-07-29T11:50:46;1.20;;;1.10;;
18188;SDS011;9219;50.396;8.546;2023-07-29T11:56:45;2.27;;;1.60;;
18188;SDS011;9219;50.396;8.546;2023-07-29T11:59:12;1.30;;;1.20;;
18188;SDS011;9219;50.396;8.546;2023-07-29T12:01:39;1.70;;;1.23;;
18188;SDS011;9219;50.396;8.546;2023-07-29T12:04:06;1.00;;;0.80;;
18188;SDS011;9219;50.396;8.546;2023-07-29T12:06:35;1.43;;;1.20;;
18188;SDS011;9219;50.396;8.546;2023-07-29T12:09:04;1.70;;;1.40;;
18188;SDS011;9219;50.396;8.546;2023-07-29T12:11:33;1.40;;;1.20;;
18188;SDS011;9219;50.396;8.546;2023-07-29T12:16:42;0.80;;;0.80;;
18188;SDS011;9219;50.396;8.546;2023-07-29T12:19:11;3.17;;;1.77;;
18188;SDS011;9219;50.396;8.546;2023-07-29T12:21:40;2.87;;;1.67;;
18188;SDS011;9219;50.396;8.546;2023-07-29T12:24:08;1.17;;;1.00;;
18188;SDS011;9219;50.396;8.546;2023-07-29T12:26:36;1.33;;;1.23;;
18188;SDS011;9219;50.396;8.546;2023-07-29T12:29:11;1.40;;;1.20;;
18188;SDS011;9219;50.396;8.546;2023-07-29T12:31:39;1.37;;;1.20;;
18188;SDS011;9219;50.396;8.546;2023-07-29T12:39:22;1.83;;;1.10;;
18188;SDS011;9219;50.396;8.546;2023-07-29T12:41:51;6.17;;;1.87;;
18188;SDS011;9219;50.396;8.546;2023-07-29T12:44:20;1.63;;;1.50;;
18188;SDS011;9219;50.396;8.546;2023-07-29T12:46:51;2.30;;;1.50;;
18188;SDS011;9219;50.396;8.546;2023-07-29T12:49:18;2.03;;;1.30;;
18188;SDS011;9219;50.396;8.546;2023-07-29T12:51:47;2.47;;;1.40;;
18188;SDS011;9219;50.396;8.546;2023-07-29T12:54:16;2.73;;;1.57;;
18188;SDS011;9219;50.396;8.546;2023-07-29T13:01:44;2.23;;;1.40;;
18188;SDS011;9219;50.396;8.546;2023-07-29T13:04:12;1.80;;;1.13;;
18188;SDS011;9219;50.396;8.546;2023-07-29T13:06:39;2.10;;;1.43;;
18188;SDS011;9219;50.396;8.546;2023-07-29T13:09:08;2.87;;;0.90;;
18188;SDS011;9219;50.396;8.546;2023-07-29T13:11:36;1.80;;;1.60;;
18188;SDS011;9219;50.396;8.546;2023-07-29T13:14:03;1.60;;;1.17;;
18188;SDS011;9219;50.396;8.546;2023-07-29T13:16:31;1.83;;;1.10;;
18188;SDS011;9219;50.396;8.546;2023-07-29T13:24:04;1.93;;;1.57;;
18188;SDS011;9219;50.396;8.546;2023-07-29T13:26:32;2.07;;;1.40;;
18188;SDS011;9219;50.396;8.546;2023-07-29T13:29:00;1.57;;;1.10;;
18188;SDS011;9219;50.396;8.546;2023-07-29T13:31:32;3.13;;;1.40;;
18188;SDS011;9219;50.396;8.546;2023-07-29T13:34:00;1.50;;;1.33;;
18188;SDS011;9219;50.396;8.546;2023-07-29T13:36:30;5.23;;;1.40;;
18188;SDS011;9219;50.396;8.546;2023-07-29T13:38:58;1.37;;;1.27;;
18188;SDS011;9219;50.396;8.546;2023-07-29T13:46:30;4.07;;;1.30;;
18188;SDS011;9219;50.396;8.546;2023-07-29T13:48:57;2.30;;;1.47;;
18188;SDS011;9219;50.396;8.546;2023-07-29T13:51:25;1.33;;;1.23;;
18188;SDS011;9219;50.396;8.546;2023-07-29T13:53:53;1.40;;;1.30;;
18188;SDS011;9219;50.396;8.546;2023-07-29T13:56:22;1.60;;;1.50;;
18188;SDS011;9219;50.396;8.546;2023-07-29T13:58:53;2.90;;;1.43;;
18188;SDS011;9219;50.396;8.546;2023-07-29T14:05:46;1.40;;;1.30;;
18188;SDS011;9219;50.396;8.546;2023-07-29T14:08:13;2.80;;;1.57;;
18188;SDS011;9219;50.396;8.546;2023-07-29T14:10:41;1.87;;;1.33;;
18188;SDS011;9219;50.396;8.546;2023-07-29T14:13:11;2.67;;;1.27;;
18188;SDS011;9219;50.396;8.546;2023-07-29T14:15:38;2.40;;;1.63;;
18188;SDS011;9219;50.396;8.546;2023-07-29T14:18:06;2.37;;;1.67;;
18188;SDS011;9219;50.396;8.546;2023-07-29T14:20:34;1.70;;;1.40;;
18188;SDS011;9219;50.396;8.546;2023-07-29T14:28:02;1.50;;;1.40;;
18188;SDS011;9219;50.396;8.546;2023-07-29T14:30:29;2.60;;;1.60;;
18188;SDS011;9219;50.396;8.546;2023-07-29T14:32:57;4.43;;;1.63;;
18188;SDS011;9219;50.396;8.546;2023-07-29T14:35:25;2.73;;;1.80;;
18188;SDS011;9219;50.396;8.546;2023-07-29T14:37:53;1.83;;;1.47;;
18188;SDS011;9219;50.396;8.546;2023-07-29T14:40:21;1.60;;;1.50;;
18188;SDS011;9219;50.396;8.546;2023-07-29T14:42:48;2.60;;;1.80;;
18188;SDS011;9219;50.396;8.546;2023-07-29T14:50:40;3.10;;;2.10;;
18188;SDS011;9219;50.396;8.546;2023-07-29T14:53:09;2.30;;;2.00;;
18188;SDS011;9219;50.396;8.546;2023-07-29T14:55:38;1.70;;;1.47;;
18188;SDS011;9219;50.396;8.546;2023-07-29T14:58:06;2.83;;;1.53;;
18188;SDS011;9219;50.396;8.546;2023-07-29T15:00:34;15.43;;;2.30;;
18188;SDS011;9219;50.396;8.546;2023-07-29T15:03:02;2.40;;;1.53;;
18188;SDS011;9219;50.396;8.546;2023-07-29T15:05:31;2.00;;;1.20;;
18188;SDS011;9219;50.396;8.546;2023-07-29T15:08:00;1.50;;;1.33;;
18188;SDS011;9219;50.396;8.546;2023-07-29T15:11:56;2.57;;;1.50;;
18188;SDS011;9219;50.396;8.546;2023-07-29T15:14:24;1.40;;;1.30;;
18188;SDS011;9219;50.396;8.546;2023-07-29T15:16:52;1.43;;;1.30;;
18188;SDS011;9219;50.396;8.546;2023-07-29T15:19:20;2.23;;;1.40;;
18188;SDS011;9219;50.396;8.546;2023-07-29T15:21:48;2.47;;;1.60;;
18188;SDS011;9219;50.396;8.546;2023-07-29T15:24:18;3.63;;;1.60;;
18188;SDS011;9219;50.396;8.546;2023-07-29T15:26:45;3.60;;;1.20;;
18188;SDS011;9219;50.396;8.546;2023-07-29T15:31:57;2.80;;;1.50;;
18188;SDS011;9219;50.396;8.546;2023-07-29T15:34:25;3.83;;;1.60;;
18188;SDS011;9219;50.396;8.546;2023-07-29T15:36:57;1.63;;;1.43;;
18188;SDS011;9219;50.396;8.546;2023-07-29T15:39:25;3.03;;;1.43;;
18188;SDS011;9219;50.396;8.546;2023-07-29T15:41:52;1.37;;;1.27;;
18188;SDS011;9219;50.396;8.546;2023-07-29T15:44:21;3.20;;;1.50;;
18188;SDS011;9219;50.396;8.546;2023-07-29T15:46:49;1.93;;;1.50;;
18188;SDS011;9219;50.396;8.546;2023-07-29T15:54:25;3.53;;;1.50;;
18188;SDS011;9219;50.396;8.546;2023-07-29T15:56:53;2.10;;;1.20;;
18188;SDS011;9219;50.396;8.546;2023-07-29T15:59:20;1.77;;;1.20;;
18188;SDS011;9219;50.396;8.546;2023-07-29T16:01:47;1.47;;;1.20;;
18188;SDS011;9219;50.396;8.546;2023-07-29T16:04:16;4.37;;;1.73;;
18188;SDS011;9219;50.396;8.546;2023-07-29T16:06:43;1.53;;;1.27;;
18188;SDS011;9219;50.396;8.546;2023-07-29T16:09:11;2.57;;;1.67;;
18188;SDS011;9219;50.396;8.546;2023-07-29T16:16:43;2.23;;;1.50;;
18188;SDS011;9219;50.396;8.546;2023-07-29T16:19:11;1.33;;;1.23;;
18188;SDS011;9219;50.396;8.546;2023-07-29T16:21:38;2.23;;;1.60;;
18188;SDS011;9219;50.396;8.546;2023-07-29T16:24:06;2.67;;;1.30;;
18188;SDS011;9219;50.396;8.546;2023-07-29T16:26:33;1.93;;;1.17;;
18188;SDS011;9219;50.396;8.546;2023-07-29T16:29:01;3.73;;;1.57;;
18188;SDS011;9219;50.396;8.546;2023-07-29T16:31:30;3.23;;;1.73;;
18188;SDS011;9219;50.396;8.546;2023-07-29T16:38:57;3.23;;;1.20;;
18188;SDS011;9219;50.396;8.546;2023-07-29T16:41:25;1.73;;;1.60;;
18188;SDS011;9219;50.396;8.546;2023-07-29T16:44:13;3.17;;;1.57;;
18188;SDS011;9219;50.396;8.546;2023-07-29T16:46:51;2.77;;;1.60;;
18188;SDS011;9219;50.396;8.546;2023-07-29T16:49:21;2.27;;;1.50;;
18188;SDS011;9219;50.396;8.546;2023-07-29T16:51:49;1.70;;;1.50;;
18188;SDS011;9219;50.396;8.546;2023-07-29T16:54:18;1.37;;;1.27;;
18188;SDS011;9219;50.396;8.546;2023-07-29T17:01:51;2.57;;;1.27;;
18188;SDS011;9219;50.396;8.546;2023-07-29T17:04:20;1.60;;;1.30;;
18188;SDS011;9219;50.396;8.546;2023-07-29T17:06:48;3.03;;;1.30;;
18188;SDS011;9219;50.396;8.546;2023-07-29T17:09:17;1.50;;;1.40;;
18188;SDS011;9219;50.396;8.546;2023-07-29T17:11:46;2.07;;;1.30;;
18188;SDS011;9219;50.396;8.546;2023-07-29T17:14:15;1.70;;;1.47;;
18188;SDS011;9219;50.396;8.546;2023-07-29T17:16:44;4.77;;;1.90;;
18188;SDS011;9219;50.396;8.546;2023-07-29T17:34:41;1.83;;;1.60;;
18188;SDS011;9219;50.396;8.546;2023-07-29T17:37:09;4.17;;;1.53;;
18188;SDS011;9219;50.396;8.546;2023-07-29T17:39:36;1.50;;;1.30;;
18188;SDS011;9219;50.396;8.546;2023-07-29T17:42:07;3.10;;;1.30;;
18188;SDS011;9219;50.396;8.546;2023-07-29T17:44:35;1.93;;;1.40;;
18188;SDS011;9219;50.396;8.546;2023-07-29T17:47:03;4.13;;;1.33;;
18188;SDS011;9219;50.396;8.546;2023-07-29T17:49:31;2.27;;;1.40;;
18188;SDS011;9219;50.396;8.546;2023-07-29T17:56:41;2.67;;;1.73;;
18188;SDS011;9219;50.396;8.546;2023-07-29T17:59:09;1.70;;;1.40;;
18188;SDS011;9219;50.396;8.546;2023-07-29T18:01:40;3.00;;;1.43;;
18188;SDS011;9219;50.396;8.546;2023-07-29T18:04:09;1.93;;;1.63;;
18188;SDS011;9219;50.396;8.546;2023-07-29T18:06:36;2.93;;;1.50;;
18188;SDS011;9219;50.396;8.546;2023-07-29T18:09:04;1.53;;;1.37;;
18188;SDS011;9219;50.396;8.546;2023-07-29T18:11:31;1.40;;;1.30;;
18188;SDS011;9219;50.396;8.546;2023-07-29T18:16:41;2.00;;;1.70;;
18188;SDS011;9219;50.396;8.546;2023-07-29T18:19:09;2.40;;;1.53;;
18188;SDS011;9219;50.396;8.546;2023-07-29T18:21:37;2.63;;;1.73;;
18188;SDS011;9219;50.396;8.546;2023-07-29T18:24:05;2.97;;;2.10;;
18188;SDS011;9219;50.396;8.546;2023-07-29T18:26:33;4.20;;;1.63;;
18188;SDS011;9219;50.396;8.546;2023-07-29T18:29:00;3.93;;;1.50;;
18188;SDS011;9219;50.396;8.546;2023-07-29T18:31:31;3.80;;;1.83;;
18188;SDS011;9219;50.396;8.546;2023-07-29T18:36:40;1.67;;;1.57;;
18188;SDS011;9219;50.396;8.546;2023-07-29T18:39:11;2.80;;;2.13;;
18188;SDS011;9219;50.396;8.546;2023-07-29T18:41:39;3.07;;;1.90;;
18188;SDS011;9219;50.396;8.546;2023-07-29T18:44:06;5.43;;;1.90;;
18188;SDS011;9219;50.396;8.546;2023-07-29T18:46:33;3.03;;;1.90;;
18188;SDS011;9219;50.396;8.546;2023-07-29T18:49:02;2.00;;;1.77;;
18188;SDS011;9219;50.396;8.546;2023-07-29T18:51:34;3.33;;;1.40;;
18188;SDS011;9219;50.396;8.546;2023-07-29T18:58:37;11.40;;;1.77;;
18188;SDS011;9219;50.396;8.546;2023-07-29T19:01:04;2.70;;;1.80;;
18188;SDS011;9219;50.396;8.546;2023-07-29T19:03:31;6.00;;;2.10;;
18188;SDS011;9219;50.396;8.546;2023-07-29T19:05:59;2.70;;;1.90;;
18188;SDS011;9219;50.396;8.546;2023-07-29T19:08:27;3.17;;;2.67;;
18188;SDS011;9219;50.396;8.546;2023-07-29T19:10:54;2.67;;;1.97;;
18188;SDS011;9219;50.396;8.546;2023-07-29T19:13:22;2.77;;;1.70;;
18188;SDS011;9219;50.396;8.546;2023-07-29T19:20:39;3.00;;;1.60;;
18188;SDS011;9219;50.396;8.546;2023-07-29T19:23:18;2.63;;;1.60;;
18188;SDS011;9219;50.396;8.546;2023-07-29T19:25:46;2.80;;;1.80;;